createdAt,value
2018-08-25T00:01:05.193Z,17.00
2018-08-25T00:03:32.828Z,16.90
2018-08-25T00:06:00.552Z,16.70
2018-08-25T00:08:29.139Z,16.80
2018-08-25T00:10:56.877Z,16.80
2018-08-25T00:13:24.512Z,16.70
2018-08-25T00:15:52.157Z,16.60
2018-08-25T00:18:19.830Z,16.80
2018-08-25T00:20:47.506Z,16.60
2018-08-25T00:23:15.159Z,16.50
2018-08-25T00:25:42.835Z,16.50
2018-08-25T00:28:10.567Z,16.40
2018-08-25T00:30:43.704Z,16.50
2018-08-25T00:33:11.330Z,16.60
2018-08-25T00:35:38.939Z,16.80
2018-08-25T00:38:06.607Z,16.90
2018-08-25T00:40:34.246Z,16.50
2018-08-25T00:43:01.943Z,16.60
2018-08-25T00:45:29.620Z,16.70
2018-08-25T00:47:57.267Z,16.80
2018-08-25T00:50:24.995Z,16.70
2018-08-25T00:52:52.658Z,16.80
2018-08-25T00:55:20.363Z,16.80
2018-08-25T00:57:47.978Z,16.80
2018-08-25T01:00:15.703Z,16.70
2018-08-25T01:02:43.465Z,16.50
2018-08-25T01:05:11.120Z,16.60
2018-08-25T01:07:38.754Z,16.60
2018-08-25T01:10:06.519Z,16.50
2018-08-25T01:12:34.463Z,16.50
2018-08-25T01:15:02.168Z,16.40
2018-08-25T01:17:29.824Z,16.60
2018-08-25T01:19:57.520Z,16.40
2018-08-25T01:22:25.156Z,16.40
2018-08-25T01:24:52.888Z,16.30
2018-08-25T01:27:20.534Z,16.10
2018-08-25T01:29:48.171Z,16.20
2018-08-25T01:32:15.813Z,15.80
2018-08-25T01:34:43.524Z,16.10
2018-08-25T01:37:11.228Z,15.60
2018-08-25T01:39:38.851Z,16.10
2018-08-25T01:42:06.498Z,16.00
2018-08-25T01:44:34.279Z,15.90
2018-08-25T01:47:01.906Z,15.80
2018-08-25T01:49:29.863Z,15.90
2018-08-25T01:51:57.523Z,16.10
2018-08-25T01:54:25.144Z,16.10
2018-08-25T01:56:52.849Z,16.10
2018-08-25T01:59:20.682Z,16.20
2018-08-25T02:01:48.590Z,15.90
2018-08-25T02:04:16.169Z,15.70
2018-08-25T02:06:44.074Z,15.90
2018-08-25T02:09:13.104Z,15.90
2018-08-25T02:11:41.016Z,15.90
2018-08-25T02:14:09.026Z,15.30
2018-08-25T02:16:37.258Z,15.80
2018-08-25T02:19:05.112Z,15.80
2018-08-25T02:21:32.742Z,15.90
2018-08-25T02:24:00.371Z,16.10
2018-08-25T02:26:28.003Z,16.00
2018-08-25T02:28:55.638Z,16.20
2018-08-25T02:31:23.388Z,16.40
2018-08-25T02:33:51.016Z,16.10
2018-08-25T02:36:18.591Z,16.30
2018-08-25T02:38:46.648Z,16.30
2018-08-25T02:41:14.294Z,16.30
2018-08-25T02:43:42.097Z,16.00
2018-08-25T02:46:09.803Z,15.90
2018-08-25T02:48:37.393Z,16.00
2018-08-25T02:51:05.079Z,15.70
2018-08-25T02:53:32.725Z,15.80
2018-08-25T02:56:00.339Z,15.90
2018-08-25T02:58:27.948Z,15.70
2018-08-25T03:00:55.542Z,15.60
2018-08-25T03:03:23.214Z,15.50
2018-08-25T03:05:50.853Z,15.50
2018-08-25T03:08:18.854Z,15.10
2018-08-25T03:10:46.551Z,15.30
2018-08-25T03:13:14.294Z,15.20
2018-08-25T03:15:41.955Z,15.30
2018-08-25T03:18:09.635Z,15.30
2018-08-25T03:20:37.364Z,15.20
2018-08-25T03:23:04.998Z,15.20
2018-08-25T03:25:32.618Z,15.10
2018-08-25T03:28:00.400Z,15.00
2018-08-25T03:30:28.066Z,15.00
2018-08-25T03:32:55.710Z,15.10
2018-08-25T03:35:23.378Z,15.00
2018-08-25T03:37:51.067Z,14.70
2018-08-25T03:40:18.884Z,14.90
2018-08-25T03:42:46.574Z,14.50
2018-08-25T03:45:14.291Z,14.60
2018-08-25T03:47:42.028Z,14.30
2018-08-25T03:50:09.639Z,14.60
2018-08-25T03:52:37.328Z,14.50
2018-08-25T03:55:05.138Z,14.70
2018-08-25T03:57:32.867Z,15.00
2018-08-25T04:00:00.482Z,14.90
2018-08-25T04:02:28.167Z,14.80
2018-08-25T04:04:55.720Z,14.80
2018-08-25T04:07:23.355Z,14.90
2018-08-25T04:09:50.939Z,15.00
2018-08-25T04:12:18.658Z,15.20
2018-08-25T04:14:46.395Z,15.10
2018-08-25T04:17:14.116Z,14.90
2018-08-25T04:19:41.847Z,14.90
2018-08-25T04:22:09.570Z,15.20
2018-08-25T04:24:37.157Z,15.20
2018-08-25T04:27:04.894Z,15.30
2018-08-25T04:29:32.535Z,15.10
2018-08-25T04:32:00.229Z,14.90
2018-08-25T04:34:27.916Z,14.80
2018-08-25T04:36:55.622Z,14.90
2018-08-25T04:39:23.216Z,14.60
2018-08-25T04:41:50.899Z,14.70
2018-08-25T04:44:18.526Z,14.90
2018-08-25T04:46:46.331Z,14.90
2018-08-25T04:49:13.972Z,14.70
2018-08-25T04:51:41.901Z,14.60
2018-08-25T04:54:09.521Z,14.70
2018-08-25T04:56:37.191Z,14.70
2018-08-25T04:59:04.910Z,14.90
2018-08-25T05:01:32.576Z,14.70
2018-08-25T05:04:02.145Z,14.80
2018-08-25T05:06:31.042Z,14.50
2018-08-25T05:08:58.745Z,14.60
2018-08-25T05:11:26.531Z,14.80
2018-08-25T05:13:54.198Z,14.70
2018-08-25T05:16:21.774Z,14.80
2018-08-25T05:18:49.514Z,14.90
2018-08-25T05:21:17.186Z,14.60
2018-08-25T05:23:44.849Z,15.00
2018-08-25T05:26:13.298Z,15.00
2018-08-25T05:28:40.984Z,15.00
2018-08-25T05:31:09.071Z,15.30
2018-08-25T05:33:36.779Z,15.20
2018-08-25T05:36:04.472Z,15.40
2018-08-25T05:38:32.178Z,15.60
2018-08-25T05:40:59.835Z,15.50
2018-08-25T05:43:27.452Z,15.50
2018-08-25T05:45:55.115Z,15.50
2018-08-25T05:48:22.725Z,15.70
2018-08-25T05:50:50.496Z,15.80
2018-08-25T05:53:18.381Z,15.60
2018-08-25T05:55:45.998Z,15.90
2018-08-25T05:58:13.634Z,15.70
2018-08-25T06:00:41.597Z,15.80
2018-08-25T06:03:09.246Z,15.70
2018-08-25T06:05:36.893Z,15.80
2018-08-25T06:08:04.890Z,15.90
2018-08-25T06:10:32.837Z,16.10
2018-08-25T06:13:00.520Z,16.20
2018-08-25T06:15:28.155Z,16.10
2018-08-25T06:17:56.176Z,16.30
2018-08-25T06:20:24.247Z,16.20
2018-08-25T06:22:52.486Z,16.20
2018-08-25T06:25:20.186Z,16.40
2018-08-25T06:27:47.860Z,16.40
2018-08-25T06:30:15.892Z,16.70
2018-08-25T06:32:43.448Z,16.50
2018-08-25T06:35:11.159Z,16.50
2018-08-25T06:37:38.800Z,16.40
2018-08-25T06:40:07.534Z,16.50
2018-08-25T06:42:35.273Z,16.60
2018-08-25T06:45:03.005Z,16.40
2018-08-25T06:47:30.638Z,16.50
2018-08-25T06:49:58.320Z,16.60
2018-08-25T06:52:26.015Z,16.40
2018-08-25T06:54:54.190Z,16.50
2018-08-25T06:57:22.163Z,16.30
2018-08-25T06:59:49.866Z,16.40
2018-08-25T07:02:17.528Z,16.00
2018-08-25T07:04:45.180Z,16.00
2018-08-25T07:07:12.790Z,16.00
2018-08-25T07:09:40.707Z,15.80
2018-08-25T07:12:08.390Z,15.60
2018-08-25T07:14:36.093Z,15.60
2018-08-25T07:17:03.789Z,15.80
2018-08-25T07:19:31.497Z,15.40
2018-08-25T07:21:59.224Z,15.30
2018-08-25T07:24:27.138Z,15.40
2018-08-25T07:26:54.935Z,15.20
2018-08-25T07:29:22.611Z,15.40
2018-08-25T07:31:50.286Z,15.20
2018-08-25T07:34:17.989Z,15.40
2018-08-25T07:36:45.608Z,15.40
2018-08-25T07:39:13.498Z,15.30
2018-08-25T07:41:41.138Z,15.30
2018-08-25T07:44:08.786Z,15.50
2018-08-25T07:46:36.799Z,15.30
2018-08-25T07:49:04.495Z,15.30
2018-08-25T07:51:32.140Z,15.10
2018-08-25T07:53:59.871Z,15.20
2018-08-25T07:56:27.544Z,15.00
2018-08-25T07:58:55.215Z,15.10
2018-08-25T08:01:22.936Z,15.00
2018-08-25T08:03:50.603Z,15.30
2018-08-25T08:06:18.188Z,15.10
2018-08-25T08:08:45.844Z,15.00
2018-08-25T08:11:13.474Z,14.60
2018-08-25T08:13:41.045Z,15.40
2018-08-25T08:16:08.739Z,15.20
2018-08-25T08:18:36.862Z,14.90
2018-08-25T08:21:05.366Z,14.90
2018-08-25T08:23:33.095Z,14.90
2018-08-25T08:26:00.714Z,14.90
2018-08-25T08:28:28.352Z,14.90
2018-08-25T08:30:56.044Z,14.90
2018-08-25T08:33:23.704Z,14.90
2018-08-25T08:35:51.363Z,14.90
2018-08-25T08:38:19.031Z,14.80
2018-08-25T08:40:48.192Z,14.80
2018-08-25T08:43:16.419Z,14.70
2018-08-25T08:45:44.336Z,14.80
2018-08-25T08:48:12.258Z,14.60
2018-08-25T08:50:39.916Z,14.50
2018-08-25T08:53:07.656Z,14.90
2018-08-25T08:55:35.358Z,14.50
2018-08-25T08:58:02.995Z,14.70
2018-08-25T09:00:31.047Z,14.70
2018-08-25T09:02:58.927Z,14.80
2018-08-25T09:05:26.951Z,14.60
2018-08-25T09:07:54.628Z,14.80
2018-08-25T09:10:22.328Z,15.00
2018-08-25T09:12:50.005Z,15.00
2018-08-25T09:15:17.837Z,14.80
2018-08-25T09:17:45.410Z,14.70
2018-08-25T09:20:13.079Z,15.00
2018-08-25T09:22:40.926Z,14.90
2018-08-25T09:25:08.692Z,15.00
2018-08-25T09:27:36.459Z,15.00
2018-08-25T09:30:04.639Z,15.00
2018-08-25T09:32:32.438Z,15.20
2018-08-25T09:35:00.136Z,15.30
2018-08-25T09:37:27.828Z,15.40
2018-08-25T09:39:55.900Z,15.60
2018-08-25T09:42:23.626Z,15.50
2018-08-25T09:44:51.285Z,15.50
2018-08-25T09:47:19.306Z,15.50
2018-08-25T09:49:47.016Z,15.80
2018-08-25T09:52:14.923Z,15.50
2018-08-25T09:54:42.788Z,15.70
2018-08-25T09:57:10.887Z,15.70
2018-08-25T09:59:38.783Z,15.30
2018-08-25T10:02:07.343Z,15.50
2018-08-25T10:04:35.723Z,15.40
2018-08-25T10:07:03.687Z,15.70
2018-08-25T10:09:32.277Z,15.70
2018-08-25T10:12:00.020Z,15.90
2018-08-25T10:14:27.612Z,15.60
2018-08-25T10:16:55.342Z,15.50
2018-08-25T10:19:23.381Z,15.80
2018-08-25T10:21:51.582Z,15.90
2018-08-25T10:24:19.777Z,16.00
2018-08-25T10:26:47.558Z,16.20
2018-08-25T10:29:15.302Z,16.10
2018-08-25T10:31:43.247Z,15.90
2018-08-25T10:34:10.960Z,15.80
2018-08-25T10:36:38.940Z,15.90
2018-08-25T10:39:09.418Z,15.80
2018-08-25T10:41:37.472Z,15.60
2018-08-25T10:44:05.839Z,15.60
2018-08-25T10:46:34.075Z,15.50
2018-08-25T10:49:02.422Z,15.30
2018-08-25T10:51:30.359Z,15.60
2018-08-25T10:53:58.763Z,15.40
2018-08-25T10:56:26.928Z,15.60
2018-08-25T10:58:54.602Z,15.90
2018-08-25T11:01:22.320Z,16.10
2018-08-25T11:03:50.187Z,16.10
2018-08-25T11:06:18.860Z,16.40
2018-08-25T11:08:47.037Z,16.50
2018-08-25T11:11:15.929Z,16.00
2018-08-25T11:13:43.973Z,16.40
2018-08-25T11:16:11.903Z,16.70
2018-08-25T11:18:40.334Z,16.70
2018-08-25T11:21:08.130Z,16.70
2018-08-25T11:23:36.660Z,16.30
2018-08-25T11:26:04.550Z,16.80
2018-08-25T11:28:32.467Z,16.30
2018-08-25T11:31:00.418Z,16.40
2018-08-25T11:33:28.131Z,16.70
2018-08-25T11:35:56.335Z,17.00
2018-08-25T11:38:24.739Z,17.20
2018-08-25T11:40:52.383Z,17.30
2018-08-25T11:43:20.177Z,17.40
2018-08-25T11:45:48.179Z,17.30
2018-08-25T11:48:16.045Z,17.60
2018-08-25T11:50:43.691Z,17.40
2018-08-25T11:53:11.367Z,17.40
2018-08-25T11:55:39.465Z,17.40
2018-08-25T11:58:07.804Z,17.50
2018-08-25T12:00:35.691Z,17.80
2018-08-25T12:03:03.835Z,17.60
2018-08-25T12:05:33.426Z,17.20
2018-08-25T12:08:01.356Z,18.10
2018-08-25T12:10:29.316Z,17.90
2018-08-25T12:12:57.835Z,18.20
2018-08-25T12:15:25.976Z,18.40
2018-08-25T12:17:55.302Z,18.50
2018-08-25T12:20:23.095Z,18.10
2018-08-25T12:22:50.831Z,18.10
2018-08-25T12:25:18.634Z,18.00
2018-08-25T12:27:46.332Z,18.20
2018-08-25T12:30:14.064Z,17.80
2018-08-25T12:32:41.742Z,18.20
2018-08-25T12:35:09.994Z,18.40
2018-08-25T12:37:38.003Z,18.00
2018-08-25T12:40:07.507Z,18.00
2018-08-25T12:42:35.832Z,17.80
2018-08-25T12:45:03.851Z,18.20
2018-08-25T12:47:32.404Z,18.20
2018-08-25T12:50:00.872Z,18.10
2018-08-25T12:52:28.827Z,18.10
2018-08-25T12:54:56.683Z,18.40
2018-08-25T12:57:24.310Z,18.20
2018-08-25T12:59:51.938Z,18.10
2018-08-25T13:02:19.643Z,18.20
2018-08-25T13:04:47.328Z,18.20
2018-08-25T13:07:15.326Z,18.40
2018-08-25T13:09:44.538Z,18.80
2018-08-25T13:12:12.883Z,18.70
2018-08-25T13:14:40.718Z,19.00
2018-08-25T13:17:08.427Z,19.20
2018-08-25T13:19:37.074Z,19.70
2018-08-25T13:22:04.811Z,20.10
2018-08-25T13:24:32.751Z,19.80
2018-08-25T13:27:05.419Z,19.50
2018-08-25T13:32:09.967Z,19.50
2018-08-25T13:34:38.359Z,20.10
2018-08-25T13:37:06.124Z,20.30
2018-08-25T13:39:33.895Z,20.30
2018-08-25T13:42:01.528Z,20.00
2018-08-25T13:44:29.214Z,20.40
2018-08-25T13:46:57.126Z,20.70
2018-08-25T13:49:29.019Z,20.30
2018-08-25T13:51:56.706Z,20.50
2018-08-25T13:54:26.922Z,20.20
2018-08-25T13:56:54.838Z,19.80
2018-08-25T13:59:22.602Z,20.10
2018-08-25T14:01:50.623Z,19.90
2018-08-25T14:04:18.429Z,19.50
2018-08-25T14:06:46.254Z,19.80
2018-08-25T14:09:14.000Z,19.80
2018-08-25T14:11:41.827Z,19.90
2018-08-25T14:14:09.616Z,19.70
2018-08-25T14:16:37.219Z,19.50
2018-08-25T14:19:05.123Z,20.00
2018-08-25T14:21:32.780Z,20.30
2018-08-25T14:24:00.878Z,20.40
2018-08-25T14:26:28.643Z,20.30
2018-08-25T14:28:56.380Z,20.40
2018-08-25T14:31:24.270Z,20.60
2018-08-25T14:33:52.020Z,20.80
2018-08-25T14:36:19.952Z,21.00
2018-08-25T14:38:47.631Z,21.30
2018-08-25T14:41:15.305Z,21.50
2018-08-25T14:43:43.168Z,21.50
2018-08-25T14:46:10.785Z,21.60
2018-08-25T14:48:38.524Z,21.50
2018-08-25T14:51:06.220Z,21.30
2018-08-25T14:53:33.872Z,21.30
2018-08-25T14:56:01.779Z,21.30
2018-08-25T14:58:29.512Z,21.30
2018-08-25T15:00:57.245Z,21.30
2018-08-25T15:03:24.798Z,21.20
2018-08-25T15:05:52.403Z,21.30
2018-08-25T15:08:20.067Z,21.10
2018-08-25T15:10:47.702Z,21.50
2018-08-25T15:13:15.617Z,21.50
2018-08-25T15:15:43.246Z,21.60
2018-08-25T15:18:11.596Z,21.60
2018-08-25T15:20:39.448Z,21.40
2018-08-25T15:23:07.092Z,21.40
2018-08-25T15:25:35.526Z,21.40
2018-08-25T15:28:03.284Z,21.30
2018-08-25T15:30:31.882Z,21.30
2018-08-25T15:32:59.530Z,21.30
2018-08-25T15:35:27.138Z,21.30
2018-08-25T15:37:54.784Z,21.30
2018-08-25T15:40:22.391Z,21.40
2018-08-25T15:42:50.115Z,21.50
2018-08-25T15:45:17.736Z,21.30
2018-08-25T15:47:45.471Z,21.00
2018-08-25T15:50:13.206Z,20.70
2018-08-25T15:52:40.938Z,21.20
2018-08-25T15:55:08.591Z,21.20
2018-08-25T15:57:36.213Z,21.10
2018-08-25T16:00:03.954Z,20.80
2018-08-25T16:02:31.600Z,21.10
2018-08-25T16:04:59.340Z,21.00
2018-08-25T16:07:27.298Z,21.10
2018-08-25T16:09:55.346Z,21.30
2018-08-25T16:12:23.337Z,21.10
2018-08-25T16:14:51.009Z,21.20
2018-08-25T16:17:18.931Z,21.10
2018-08-25T16:19:46.670Z,21.00
2018-08-25T16:22:14.266Z,21.00
2018-08-25T16:24:42.167Z,20.90
2018-08-25T16:27:09.881Z,21.10
2018-08-25T16:29:37.604Z,20.90
2018-08-25T16:32:05.367Z,21.00
2018-08-25T16:34:33.007Z,20.90
2018-08-25T16:37:01.225Z,20.90
2018-08-25T16:39:29.076Z,20.80
2018-08-25T16:41:56.690Z,20.70
2018-08-25T16:44:24.507Z,20.70
2018-08-25T16:46:52.530Z,20.60
2018-08-25T16:49:20.245Z,20.50
2018-08-25T16:51:47.815Z,20.60
2018-08-25T16:54:15.509Z,20.50
2018-08-25T16:56:43.340Z,20.50
2018-08-25T16:59:11.189Z,20.30
2018-08-25T17:01:38.996Z,20.30
2018-08-25T17:04:07.222Z,20.30
2018-08-25T17:06:34.927Z,20.60
2018-08-25T17:09:04.483Z,20.60
2018-08-25T17:11:32.271Z,20.60
2018-08-25T17:14:00.028Z,20.50
2018-08-25T17:16:27.990Z,20.50
2018-08-25T17:18:55.624Z,20.20
2018-08-25T17:21:23.284Z,20.20
2018-08-25T17:23:51.214Z,20.20
2018-08-25T17:26:18.910Z,20.00
2018-08-25T17:28:46.941Z,19.90
2018-08-25T17:31:14.669Z,19.50
2018-08-25T17:33:42.476Z,20.10
2018-08-25T17:36:10.115Z,19.70
2018-08-25T17:38:37.859Z,19.90
2018-08-25T17:41:05.828Z,19.60
2018-08-25T17:43:33.588Z,19.50
2018-08-25T17:46:01.282Z,19.60
2018-08-25T17:48:29.139Z,19.60
2018-08-25T17:50:56.941Z,19.40
2018-08-25T17:53:24.778Z,19.50
2018-08-25T17:55:52.480Z,19.50
2018-08-25T17:58:20.521Z,19.30
2018-08-25T18:00:48.270Z,19.20
2018-08-25T18:03:16.728Z,19.40
2018-08-25T18:05:44.505Z,19.30
2018-08-25T18:08:12.164Z,19.30
2018-08-25T18:10:39.903Z,19.50
2018-08-25T18:13:07.481Z,19.20
2018-08-25T18:15:35.190Z,19.30
2018-08-25T18:18:02.870Z,18.80
2018-08-25T18:20:30.757Z,19.30
2018-08-25T18:22:58.583Z,19.00
2018-08-25T18:25:26.285Z,18.90
2018-08-25T18:27:54.257Z,18.80
2018-08-25T18:30:22.406Z,19.00
2018-08-25T18:32:51.501Z,19.00
2018-08-25T18:35:19.208Z,18.90
2018-08-25T18:37:46.983Z,18.70
2018-08-25T18:40:14.718Z,18.80
2018-08-25T18:42:42.759Z,18.70
2018-08-25T18:45:11.344Z,18.80
2018-08-25T18:47:39.579Z,18.40
2018-08-25T18:50:07.336Z,18.50
2018-08-25T18:52:35.826Z,18.70
2018-08-25T18:55:03.899Z,18.30
2018-08-25T18:57:32.123Z,18.40
2018-08-25T19:00:02.113Z,18.30
2018-08-25T19:02:30.756Z,18.30
2018-08-25T19:04:58.409Z,18.00
2018-08-25T19:07:26.083Z,18.10
2018-08-25T19:09:53.838Z,18.00
2018-08-25T19:12:21.871Z,18.00
2018-08-25T19:14:49.931Z,17.90
2018-08-25T19:17:18.385Z,17.80
2018-08-25T19:19:46.071Z,17.60
2018-08-25T19:22:14.208Z,18.00
2018-08-25T19:24:43.119Z,17.70
2018-08-25T19:27:11.383Z,18.00
2018-08-25T19:29:39.022Z,17.90
2018-08-25T19:32:07.738Z,18.00
2018-08-25T19:34:36.327Z,17.80
2018-08-25T19:37:04.787Z,17.60
2018-08-25T19:39:32.428Z,17.50
2018-08-25T19:42:00.435Z,17.70
2018-08-25T19:44:28.094Z,17.50
2018-08-25T19:46:55.911Z,17.60
2018-08-25T19:49:28.538Z,17.70
2018-08-25T19:51:56.691Z,17.60
2018-08-25T19:54:24.338Z,17.20
2018-08-25T19:56:52.940Z,17.70
2018-08-25T19:59:20.621Z,17.50
2018-08-25T20:01:48.564Z,17.30
2018-08-25T20:04:16.390Z,17.80
2018-08-25T20:06:45.151Z,17.50
2018-08-25T20:09:13.123Z,17.70
2018-08-25T20:11:41.095Z,17.30
2018-08-25T20:14:09.642Z,17.70
2018-08-25T20:16:39.144Z,17.50
2018-08-25T20:19:06.906Z,17.50
2018-08-25T20:21:35.109Z,17.60
2018-08-25T20:24:02.670Z,17.20
2018-08-25T20:26:30.722Z,17.30
2018-08-25T20:29:01.479Z,17.40
2018-08-25T20:31:32.231Z,17.10
2018-08-25T20:34:00.394Z,16.90
2018-08-25T20:36:28.035Z,17.10
2018-08-25T20:38:56.938Z,16.90
2018-08-25T20:41:25.029Z,16.90
2018-08-25T20:43:53.203Z,17.00
2018-08-25T20:46:21.426Z,17.10
2018-08-25T20:48:49.137Z,16.90
2018-08-25T20:51:20.389Z,16.70
2018-08-25T20:53:48.076Z,16.70
2018-08-25T20:56:15.711Z,16.90
2018-08-25T20:58:44.788Z,17.00
2018-08-25T21:01:13.241Z,17.00
2018-08-25T21:03:40.926Z,16.70
2018-08-25T21:06:08.712Z,16.50
2018-08-25T21:08:36.431Z,16.50
2018-08-25T21:11:04.151Z,16.70
2018-08-25T21:13:32.903Z,16.60
2018-08-25T21:16:00.800Z,16.50
2018-08-25T21:18:28.470Z,16.50
2018-08-25T21:20:57.210Z,16.70
2018-08-25T21:23:25.285Z,16.50
2018-08-25T21:25:52.960Z,16.50
2018-08-25T21:28:20.615Z,16.40
2018-08-25T21:30:48.345Z,16.50
2018-08-25T21:33:15.984Z,16.40
2018-08-25T21:35:43.613Z,16.30
2018-08-25T21:38:11.366Z,16.50
2018-08-25T21:40:39.038Z,16.20
2018-08-25T21:43:07.244Z,16.30
2018-08-25T21:45:34.879Z,16.50
2018-08-25T21:48:02.775Z,16.30
2018-08-25T21:50:30.460Z,16.10
2018-08-25T21:52:58.120Z,16.20
2018-08-25T21:55:26.142Z,16.60
2018-08-25T21:57:53.783Z,16.30
2018-08-25T22:00:21.462Z,16.40
2018-08-25T22:02:49.968Z,16.20
2018-08-25T22:05:17.883Z,16.40
2018-08-25T22:07:45.546Z,16.30
2018-08-25T22:10:13.843Z,16.00
2018-08-25T22:12:41.511Z,16.40
2018-08-25T22:15:09.162Z,16.10
2018-08-25T22:17:36.893Z,16.10
2018-08-25T22:20:05.862Z,15.90
2018-08-25T22:22:33.556Z,16.30
2018-08-25T22:25:01.320Z,16.00
2018-08-25T22:27:28.983Z,15.70
2018-08-25T22:29:56.612Z,15.80
2018-08-25T22:32:24.250Z,16.00
2018-08-25T22:34:51.971Z,16.10
2018-08-25T22:37:19.734Z,16.00
2018-08-25T22:39:47.383Z,15.70
2018-08-25T22:42:15.067Z,15.60
2018-08-25T22:44:43.087Z,15.60
2018-08-25T22:47:10.732Z,15.70
2018-08-25T22:49:38.576Z,15.50
2018-08-25T22:52:06.963Z,15.90
2018-08-25T22:54:35.040Z,15.30
2018-08-25T22:57:02.640Z,15.80
2018-08-25T22:59:30.283Z,15.30
2018-08-25T23:01:58.158Z,15.20
2018-08-25T23:04:26.122Z,14.80
2018-08-25T23:06:54.498Z,15.10
2018-08-25T23:09:22.267Z,15.20
2018-08-25T23:11:50.808Z,15.00
2018-08-25T23:14:18.419Z,15.00
2018-08-25T23:16:46.085Z,15.30
2018-08-25T23:19:13.997Z,15.20
2018-08-25T23:21:41.745Z,15.00
2018-08-25T23:24:09.711Z,15.50
2018-08-25T23:26:37.406Z,15.30
2018-08-25T23:29:05.252Z,15.30
2018-08-25T23:31:32.876Z,15.40
2018-08-25T23:34:00.516Z,15.20
2018-08-25T23:36:28.486Z,15.40
2018-08-25T23:38:56.251Z,15.40
2018-08-25T23:41:23.826Z,15.40
2018-08-25T23:43:51.733Z,15.10
2018-08-25T23:46:19.386Z,15.40
2018-08-25T23:48:47.059Z,15.30
2018-08-25T23:51:15.388Z,15.20
2018-08-25T23:53:43.058Z,15.20
2018-08-25T23:56:10.950Z,15.10
2018-08-25T23:58:38.646Z,14.60
